Time;durP1;ratioP1;P1;durP2;ratioP2;P2;SDS_P1;SDS_P2;PMS_P1;PMS_P2;Temp;Humidity;BMP_temperature;BMP_pressure;BME280_temperature;BME280_humidity;BME280_pressure;Samples;Min_cycle;Max_cycle;Signal;HPM_P1;HPM_P2
2023/01/08 00:01:08;;;;;;;2.83;0.77;;;16.70;64.60;;;;;;6246124;23;20000;-80
2023/01/08 00:03:36;;;;;;;1.40;0.57;;;16.60;93.60;;;;;;6245470;23;20005;-81
2023/01/08 00:06:09;;;;;;;3.78;0.93;;;16.60;93.50;;;;;;6245792;23;20008;-81
2023/01/08 00:08:35;;;;;;;1.70;0.88;;;16.60;79.10;;;;;;6246035;23;20016;-81
2023/01/08 00:11:01;;;;;;;1.35;0.70;;;16.50;77.30;;;;;;6245929;23;20003;-81
2023/01/08 00:13:27;;;;;;;0.80;0.63;;;;;;;;;;6255773;23;20447;-81
2023/01/08 00:15:53;;;;;;;1.17;0.80;;;;;;;;;;6256014;23;20000;-81
2023/01/08 00:18:19;;;;;;;2.63;0.82;;;;;;;;;;6255971;23;20000;-81
2023/01/08 00:20:46;;;;;;;1.52;0.80;;;17.00;64.70;;;;;;6256178;23;20007;-81
2023/01/08 00:23:16;;;;;;;1.67;0.75;;;16.60;93.50;;;;;;6255690;23;20063;-81
2023/01/08 00:25:42;;;;;;;1.85;0.88;;;16.70;93.60;;;;;;6255629;23;20113;-81
2023/01/08 00:28:08;;;;;;;1.77;0.75;;;;;;;;;;6255656;23;19992;-81
2023/01/08 00:30:35;;;;;;;1.05;0.68;;;16.60;93.60;;;;;;6255591;23;20442;-81
2023/01/08 00:33:00;;;;;;;2.30;0.77;;;16.70;93.60;;;;;;6255719;23;19992;-81
2023/01/08 00:35:26;;;;;;;2.63;1.05;;;16.60;93.60;;;;;;6228921;23;20002;-81
2023/01/08 00:37:52;;;;;;;1.35;0.80;;;16.60;93.50;;;;;;6255688;23;20023;-80
2023/01/08 00:40:17;;;;;;;3.47;0.77;;;16.60;88.90;;;;;;6255489;23;19993;-81
2023/01/08 00:42:43;;;;;;;1.55;0.60;;;;;;;;;;6255432;23;20000;-81
2023/01/08 00:45:09;;;;;;;1.95;0.75;;;;;;;;;;6244995;23;20046;-81
2023/01/08 00:47:35;;;;;;;2.42;0.90;;;;;;;;;;6255585;23;20003;-81
2023/01/08 00:50:01;;;;;;;1.20;0.80;;;16.60;72.30;;;;;;6255521;23;20095;-80
2023/01/08 00:52:27;;;;;;;1.38;0.80;;;;;;;;;;6245545;23;20024;-81
2023/01/08 00:54:53;;;;;;;1.10;0.50;;;;;;;;;;6255637;23;20305;-81
2023/01/08 00:57:19;;;;;;;1.17;0.63;;;;;;;;;;6255746;23;20000;-81
2023/01/08 00:59:45;;;;;;;1.35;0.85;;;;;;;;;;6255367;23;20011;-81
2023/01/08 01:02:11;;;;;;;2.33;0.70;;;;;;;;;;6245060;23;20012;-81
2023/01/08 01:04:37;;;;;;;1.10;0.70;;;;;;;;;;6255219;23;20004;-81
2023/01/08 01:07:03;;;;;;;4.82;0.95;;;16.70;64.10;;;;;;6255380;23;20150;-81
2023/01/08 01:09:29;;;;;;;1.17;0.50;;;16.50;72.20;;;;;;6255433;23;20070;-81
2023/01/08 01:11:56;;;;;;;1.80;0.50;;;;;;;;;;6255243;23;20026;-81
2023/01/08 01:14:22;;;;;;;0.93;0.50;;;16.70;93.50;;;;;;6255306;23;20446;-81
2023/01/08 01:16:47;;;;;;;1.40;0.65;;;16.70;90.20;;;;;;6255530;23;19996;-81
2023/01/08 01:19:15;;;;;;;1.30;0.70;;;16.70;64.40;;;;;;6255251;23;19992;-81
2023/01/08 01:21:41;;;;;;;0.93;0.55;;;16.70;93.50;;;;;;6255329;23;20439;-81
2023/01/08 01:24:07;;;;;;;1.17;0.65;;;16.60;93.50;;;;;;6255311;23;19999;-81
2023/01/08 01:26:33;;;;;;;1.50;0.60;;;16.70;93.60;;;;;;6255093;23;20087;-81
2023/01/08 01:28:59;;;;;;;0.75;0.47;;;16.60;63.90;;;;;;6255109;23;20332;-81
2023/01/08 01:31:27;;;;;;;0.82;0.43;;;17.00;64.20;;;;;;6255176;23;20000;-81
2023/01/08 01:33:53;;;;;;;0.55;0.40;;;16.70;65.00;;;;;;6255080;23;19999;-68
2023/01/08 01:36:22;;;;;;;1.17;0.50;;;16.40;64.20;;;;;;6254974;23;20008;-69
2023/01/08 01:38:50;;;;;;;1.17;0.47;;;16.60;93.40;;;;;;6255060;23;20003;-69
2023/01/08 01:41:29;;;;;;;1.10;0.52;;;16.60;62.90;;;;;;6254994;23;20000;-69
2023/01/08 01:43:59;;;;;;;1.13;0.40;;;16.60;93.40;;;;;;6255062;23;20070;-69
2023/01/08 01:46:37;;;;;;;0.95;0.47;;;16.60;63.90;;;;;;6254867;23;20004;-69
2023/01/08 01:49:08;;;;;;;2.42;0.52;;;16.60;93.50;;;;;;6255061;23;20047;-69
2023/01/08 01:51:35;;;;;;;0.50;0.38;;;16.50;93.40;;;;;;6255070;23;20000;-68
2023/01/08 01:54:04;;;;;;;1.17;0.52;;;16.60;63.90;;;;;;6254851;23;20075;-69
2023/01/08 01:56:31;;;;;;;0.70;0.40;;;16.60;91.00;;;;;;6254946;23;20411;-69
2023/01/08 01:58:57;;;;;;;1.50;0.77;;;;;;;;;;6254945;23;20370;-69
2023/01/08 02:01:24;;;;;;;2.00;0.50;;;16.50;92.10;;;;;;6254734;23;20004;-69
2023/01/08 02:03:49;;;;;;;1.13;0.43;;;16.30;91.00;;;;;;6245058;23;20378;-69
2023/01/08 02:06:41;;;;;;;1.10;0.50;;;16.50;64.10;;;;;;6256872;23;20043;-68
2023/01/08 02:09:13;;;;;;;1.20;0.50;;;16.50;63.10;;;;;;6246945;23;20004;-68
2023/01/08 02:11:41;;;;;;;0.80;0.50;;;16.50;93.50;;;;;;6257020;23;19997;-68
2023/01/08 02:14:22;;;;;;;1.05;0.40;;;16.60;73.70;;;;;;6256889;23;19998;-68
2023/01/08 02:17:03;;;;;;;0.88;0.40;;;16.40;93.50;;;;;;6256935;23;20454;-69
2023/01/08 02:19:52;;;;;;;1.73;0.65;;;16.50;63.10;;;;;;6256938;23;20034;-69
2023/01/08 02:22:21;;;;;;;1.10;0.60;;;16.60;93.60;;;;;;6246598;23;20432;-68
2023/01/08 02:25:05;;;;;;;0.40;0.30;;;16.50;93.60;;;;;;6256570;23;20008;-69
2023/01/08 02:27:33;;;;;;;0.45;0.45;;;16.50;93.50;;;;;;6247047;23;20082;-68
2023/01/08 02:30:00;;;;;;;0.80;0.40;;;16.50;64.10;;;;;;6256833;23;20019;-69
2023/01/08 02:32:35;;;;;;;0.90;0.50;;;16.60;93.30;;;;;;6256747;23;20032;-69
2023/01/08 02:35:02;;;;;;;1.05;0.55;;;16.50;64.30;;;;;;6256747;23;20461;-69
2023/01/08 02:37:28;;;;;;;1.00;0.50;;;16.50;93.50;;;;;;6256700;23;20461;-68
2023/01/08 02:40:05;;;;;;;2.42;0.60;;;16.50;81.50;;;;;;6256669;23;19996;-68
2023/01/08 02:42:58;;;;;;;0.82;0.50;;;16.50;64.30;;;;;;6256626;23;19996;-68
2023/01/08 02:45:46;;;;;;;2.22;0.57;;;16.40;93.40;;;;;;6232917;23;20037;-68
2023/01/08 02:48:30;;;;;;;1.10;0.50;;;16.20;86.20;;;;;;6256840;23;20055;-81
2023/01/08 02:51:39;;;;;;;0.82;0.43;;;16.50;93.50;;;;;;6256742;23;19996;-81
2023/01/08 02:54:10;;;;;;;0.65;0.30;;;16.40;70.90;;;;;;6256627;23;19996;-81
2023/01/08 02:56:37;;;;;;;;;;;16.40;65.20;;;;;;6247202;23;20000;-81
2023/01/08 02:59:06;;;;;;;0.57;0.40;;;16.50;64.60;;;;;;6246434;23;19899;-81
2023/01/08 03:01:33;;;;;;;1.75;0.40;;;16.40;93.70;;;;;;6246330;23;20336;-81
2023/01/08 03:04:03;;;;;;;3.22;0.65;;;16.60;64.80;;;;;;6254752;23;20316;-81
2023/01/08 03:06:29;;;;;;;2.08;0.50;;;;;;;;;;6254665;23;20008;-81
2023/01/08 03:08:56;;;;;;;2.10;0.70;;;16.60;64.90;;;;;;6254686;23;20000;-81
2023/01/08 03:11:27;;;;;;;0.50;0.40;;;16.50;93.80;;;;;;6254706;23;20024;-81
2023/01/08 03:14:14;;;;;;;1.02;0.40;;;16.40;63.40;;;;;;6254680;23;20050;-80
2023/01/08 03:17:04;;;;;;;0.55;0.47;;;16.40;66.00;;;;;;6244885;23;20297;-81
2023/01/08 03:19:40;;;;;;;;;;;16.40;65.80;;;;;;6255677;23;20000;-81
2023/01/08 03:22:10;;;;;;;0.82;0.40;;;16.40;93.90;;;;;;6250817;23;19990;-81
2023/01/08 03:24:38;;;;;;;1.33;0.57;;;16.40;83.90;;;;;;6254764;23;20039;-81
2023/01/08 03:27:08;;;;;;;0.60;0.40;;;16.40;93.40;;;;;;6244758;23;20439;-81
2023/01/08 03:29:35;;;;;;;4.77;0.50;;;16.50;93.90;;;;;;6254603;23;19996;-81
2023/01/08 03:32:07;;;;;;;0.50;0.50;;;16.40;65.10;;;;;;6254627;23;20000;-81
2023/01/08 03:34:36;;;;;;;1.67;0.52;;;16.40;65.00;;;;;;6254639;23;20023;-81
2023/01/08 03:37:06;;;;;;;1.98;0.85;;;16.40;65.20;;;;;;6254648;23;19996;-81
2023/01/08 03:40:04;;;;;;;1.00;0.50;;;16.30;93.80;;;;;;6244851;23;20008;-80
2023/01/08 03:42:31;;;;;;;1.05;0.40;;;16.40;93.80;;;;;;6243627;23;20374;-81
2023/01/08 03:45:00;;;;;;;2.35;0.65;;;16.20;93.90;;;;;;6254385;23;20087;-81
2023/01/08 03:47:31;;;;;;;0.65;0.38;;;16.40;85.20;;;;;;6254633;23;20328;-81
2023/01/08 03:50:00;;;;;;;0.50;0.40;;;16.20;93.20;;;;;;6254524;23;20377;-81
2023/01/08 03:52:31;;;;;;;1.42;0.50;;;16.40;83.90;;;;;;6254534;23;19996;-81
2023/01/08 03:54:57;;;;;;;3.92;0.70;;;;;;;;;;6254488;23;19992;-81
2023/01/08 03:57:23;;;;;;;1.60;0.63;;;16.40;64.40;;;;;;6254507;23;19996;-80
2023/01/08 03:59:49;;;;;;;1.23;0.52;;;;;;;;;;6254567;23;20374;-81
2023/01/08 04:02:15;;;;;;;2.83;0.65;;;16.40;65.40;;;;;;6204509;23;1087192;-80
2023/01/08 04:04:41;;;;;;;1.38;0.55;;;;;;;;;;6255954;23;20000;-81
2023/01/08 04:07:10;;;;;;;0.80;0.40;;;16.40;77.70;;;;;;6255931;23;20031;-81
2023/01/08 04:09:36;;;;;;;3.13;0.88;;;;;;;;;;6246134;23;19996;-81
2023/01/08 04:12:02;;;;;;;0.90;0.43;;;16.20;94.10;;;;;;6245631;23;20007;-81
2023/01/08 04:14:28;;;;;;;1.98;0.77;;;16.30;94.20;;;;;;6245935;23;20000;-81
2023/01/08 04:16:55;;;;;;;1.33;0.50;;;;;;;;;;6245983;23;20075;-81
2023/01/08 04:19:21;;;;;;;4.35;0.57;;;;;;;;;;6246002;23;19996;-81
2023/01/08 04:21:51;;;;;;;1.80;0.60;;;16.30;92.10;;;;;;6246205;23;20026;-81
2023/01/08 04:24:17;;;;;;;1.05;0.40;;;14.10;63.60;;;;;;6245772;23;20055;-81
2023/01/08 04:26:43;;;;;;;2.20;0.57;;;16.30;80.20;;;;;;6245294;23;20011;-81
2023/01/08 04:29:11;;;;;;;1.83;0.35;;;16.40;81.60;;;;;;6245748;23;20071;-81
2023/01/08 04:31:37;;;;;;;1.48;0.65;;;16.30;64.80;;;;;;6245540;23;20000;-82
2023/01/08 04:34:04;;;;;;;1.25;0.45;;;;;;;;;;6245758;23;19996;-82
2023/01/08 04:36:29;;;;;;;1.10;0.52;;;16.30;91.60;;;;;;6255757;23;20375;-81
2023/01/08 04:38:55;;;;;;;2.53;0.50;;;16.30;73.90;;;;;;6255751;23;20027;-81
2023/01/08 04:41:21;;;;;;;1.85;0.52;;;;;;;;;;6255569;23;19999;-81
2023/01/08 04:43:47;;;;;;;1.10;0.50;;;16.20;94.20;;;;;;6255591;23;20004;-81
2023/01/08 04:46:12;;;;;;;1.48;0.65;;;16.30;94.30;;;;;;6255440;23;20008;-81
2023/01/08 04:48:38;;;;;;;1.48;1.00;;;16.30;94.40;;;;;;6255487;23;19992;-81
2023/01/08 04:51:04;;;;;;;1.13;0.47;;;16.30;94.40;;;;;;6255418;23;20007;-81
2023/01/08 04:53:34;;;;;;;3.00;0.45;;;16.30;94.30;;;;;;6255561;23;20000;-81
2023/01/08 04:56:05;;;;;;;5.05;0.75;;;16.30;94.40;;;;;;6256242;23;20077;-81
2023/01/08 04:58:31;;;;;;;1.58;0.50;;;16.10;94.50;;;;;;6255357;23;20000;-81
2023/01/08 05:00:57;;;;;;;0.95;0.68;;;;;;;;;;6255495;23;20323;-81
2023/01/08 05:03:23;;;;;;;3.45;0.77;;;16.20;66.00;;;;;;6255066;23;20044;-81
2023/01/08 05:05:49;;;;;;;1.42;0.55;;;;;;;;;;6255339;23;20039;-81
2023/01/08 05:08:15;;;;;;;0.85;0.50;;;;;;;;;;6255348;23;19992;-81
2023/01/08 05:10:41;;;;;;;1.48;0.63;;;16.30;94.60;;;;;;6255306;23;20359;-81
2023/01/08 05:13:06;;;;;;;2.08;0.47;;;16.30;76.70;;;;;;6255599;23;20027;-81
2023/01/08 05:15:32;;;;;;;0.85;0.63;;;16.10;94.50;;;;;;6245614;23;19996;-81
2023/01/08 05:18:00;;;;;;;1.42;0.40;;;16.20;86.00;;;;;;6245152;23;19996;-81
2023/01/08 05:20:27;;;;;;;2.25;0.75;;;16.20;94.50;;;;;;6245530;23;20004;-80
2023/01/08 05:22:54;;;;;;;1.23;0.70;;;;;;;;;;6245959;23;20028;-81
2023/01/08 05:25:20;;;;;;;1.65;0.70;;;16.20;94.50;;;;;;6245182;23;20020;-81
2023/01/08 05:27:46;;;;;;;2.95;0.55;;;16.20;94.60;;;;;;6245385;23;20366;-81
2023/01/08 05:30:13;;;;;;;1.90;0.63;;;;;;;;;;6244915;23;20063;-81
2023/01/08 05:32:39;;;;;;;1.20;0.32;;;16.20;81.80;;;;;;6245091;23;20011;-68
2023/01/08 05:35:05;;;;;;;1.25;0.47;;;16.10;94.60;;;;;;6244778;23;20003;-69
2023/01/08 05:37:34;;;;;;;1.10;0.70;;;16.10;69.20;;;;;;6245104;23;20309;-69
2023/01/08 05:40:00;;;;;;;1.45;0.60;;;16.20;94.60;;;;;;6245173;23;20000;-69
2023/01/08 05:42:26;;;;;;;1.58;0.60;;;16.20;94.70;;;;;;6245100;23;19999;-69
2023/01/08 05:44:52;;;;;;;0.80;0.43;;;16.20;94.60;;;;;;6245006;23;20000;-68
2023/01/08 05:47:18;;;;;;;1.50;0.50;;;16.10;78.90;;;;;;6244653;23;19997;-68
2023/01/08 05:49:44;;;;;;;1.73;0.60;;;16.20;94.70;;;;;;6244854;23;20067;-69
2023/01/08 05:52:09;;;;;;;2.13;0.50;;;16.30;94.50;;;;;;6244885;23;20028;-81
2023/01/08 05:54:35;;;;;;;0.90;0.60;;;;;;;;;;6245105;23;19992;-81
2023/01/08 05:57:01;;;;;;;1.88;0.60;;;16.10;93.40;;;;;;6245221;23;20004;-81
2023/01/08 05:59:27;;;;;;;1.67;0.60;;;16.10;92.60;;;;;;6245092;23;20070;-80
2023/01/08 06:01:53;;;;;;;0.80;0.52;;;16.10;91.20;;;;;;6244508;23;20004;-81
2023/01/08 06:04:19;;;;;;;1.83;0.40;;;16.00;89.30;;;;;;6245137;23;20000;-81
2023/01/08 06:06:45;;;;;;;2.58;0.70;;;;;;;;;;6254931;23;20009;-81
2023/01/08 06:09:12;;;;;;;3.30;0.52;;;16.10;66.50;;;;;;6255032;23;19993;-69
2023/01/08 06:11:37;;;;;;;0.40;0.40;;;16.00;89.90;;;;;;6254881;23;20007;-68
2023/01/08 06:14:03;;;;;;;0.95;0.55;;;;;;;;;;6254843;23;20020;-68
2023/01/08 06:16:29;;;;;;;1.38;0.55;;;;;;;;;;6254677;23;20008;-68
2023/01/08 06:18:55;;;;;;;0.60;0.52;;;;;;;;;;6254806;23;19993;-68
2023/01/08 06:21:21;;;;;;;1.92;0.60;;;;;;;;;;6254793;23;20023;-68
2023/01/08 06:23:47;;;;;;;1.30;0.68;;;;;;;;;;6254824;23;19996;-68
2023/01/08 06:26:13;;;;;;;1.60;0.63;;;;;;;;;;6254744;23;20081;-68
2023/01/08 06:28:39;;;;;;;2.10;0.73;;;16.10;95.00;;;;;;6254806;23;20031;-81
2023/01/08 06:31:04;;;;;;;1.35;0.55;;;16.10;95.00;;;;;;6254970;23;20032;-81
2023/01/08 06:33:30;;;;;;;1.55;0.60;;;16.80;70.20;;;;;;6254959;23;20419;-81
2023/01/08 06:36:01;;;;;;;1.02;0.70;;;16.10;95.10;;;;;;6254985;23;20443;-81
2023/01/08 06:38:33;;;;;;;5.25;0.88;;;16.10;67.30;;;;;;6254952;23;20039;-81
2023/01/08 06:41:05;;;;;;;0.80;0.45;;;15.90;95.00;;;;;;6245204;23;20000;-80
2023/01/08 06:43:33;;;;;;;1.95;0.80;;;16.10;67.20;;;;;;6254837;23;20331;-81
2023/01/08 06:45:58;;;;;;;2.40;0.70;;;16.10;94.90;;;;;;6245125;23;20387;-81
2023/01/08 06:48:24;;;;;;;1.30;0.63;;;15.90;95.00;;;;;;6244632;23;20028;-80
2023/01/08 06:50:50;;;;;;;3.22;0.60;;;16.10;95.10;;;;;;6256192;23;19997;-80
2023/01/08 06:53:16;;;;;;;2.75;1.02;;;16.10;95.00;;;;;;6256751;23;19992;-80
2023/01/08 06:55:41;;;;;;;4.05;0.63;;;15.90;89.40;;;;;;6256697;23;20007;-81
2023/01/08 06:58:11;;;;;;;2.47;0.70;;;16.10;67.60;;;;;;6246474;23;20316;-81
2023/01/08 07:00:37;;;;;;;2.47;0.60;;;16.20;95.10;;;;;;6256689;23;20007;-80
2023/01/08 07:03:03;;;;;;;1.23;0.55;;;16.20;95.30;;;;;;6256438;23;20395;-80
2023/01/08 07:05:29;;;;;;;2.30;0.73;;;16.20;95.10;;;;;;6246742;23;20012;-81
2023/01/08 07:07:54;;;;;;;1.73;0.70;;;16.10;95.30;;;;;;6246674;23;19996;-81
2023/01/08 07:10:20;;;;;;;2.25;0.75;;;16.20;95.40;;;;;;6256629;23;20335;-81
2023/01/08 07:12:47;;;;;;;2.15;0.60;;;16.10;95.60;;;;;;6246466;23;20003;-81
2023/01/08 07:15:13;;;;;;;0.88;0.43;;;;;;;;;;6246141;23;20478;-81
2023/01/08 07:17:39;;;;;;;1.73;0.70;;;16.20;80.20;;;;;;6246425;23;20074;-81
2023/01/08 07:20:06;;;;;;;1.15;0.40;;;16.10;88.10;;;;;;6246570;23;19996;-81
2023/01/08 07:22:32;;;;;;;2.55;0.68;;;16.10;95.20;;;;;;6246723;23;20003;-80
2023/01/08 07:24:58;;;;;;;2.13;0.70;;;16.10;95.20;;;;;;6246703;23;20035;-81
2023/01/08 07:27:24;;;;;;;1.70;0.50;;;16.10;95.30;;;;;;6246641;23;20023;-81
2023/01/08 07:29:51;;;;;;;1.85;0.68;;;;;;;;;;6246053;23;20436;-81
2023/01/08 07:32:17;;;;;;;2.65;0.90;;;16.20;95.50;;;;;;6246447;23;20007;-81
2023/01/08 07:34:43;;;;;;;2.85;0.50;;;16.10;95.30;;;;;;6246399;23;20411;-81
2023/01/08 07:37:09;;;;;;;2.78;0.60;;;16.10;95.30;;;;;;6246330;23;20000;-82
2023/01/08 07:39:35;;;;;;;2.85;0.55;;;16.00;95.20;;;;;;6245937;23;20075;-81
2023/01/08 07:42:01;;;;;;;1.80;0.57;;;;;;;;;;6246357;23;20031;-80
2023/01/08 07:44:27;;;;;;;2.25;1.02;;;16.10;87.50;;;;;;6246250;23;20004;-81
2023/01/08 07:46:54;;;;;;;4.75;1.08;;;;;;;;;;6245814;23;20336;-79
2023/01/08 07:49:20;;;;;;;2.50;0.45;;;16.10;95.20;;;;;;6246216;23;19996;-81
2023/01/08 07:51:48;;;;;;;1.83;0.60;;;16.20;67.70;;;;;;6246226;23;20023;-80
2023/01/08 07:54:14;;;;;;;2.25;0.75;;;16.20;95.40;;;;;;6246247;23;19996;-73
2023/01/08 07:56:41;;;;;;;2.22;0.30;;;16.20;95.40;;;;;;6246279;23;20359;-78
2023/01/08 07:59:07;;;;;;;2.83;0.82;;;16.10;95.40;;;;;;6245901;23;20079;-78
2023/01/08 08:01:33;;;;;;;1.77;0.47;;;16.20;95.30;;;;;;6245379;23;20023;-75
2023/01/08 08:03:59;;;;;;;2.70;0.73;;;16.00;95.40;;;;;;6246243;23;20011;-77
2023/01/08 08:06:25;;;;;;;2.53;0.45;;;;;;;;;;6246026;23;20073;-76
2023/01/08 08:08:51;;;;;;;1.85;0.63;;;16.20;76.90;;;;;;6246022;23;20315;-78
2023/01/08 08:11:18;;;;;;;2.80;0.73;;;;;;;;;;6246148;23;20063;-77
2023/01/08 08:13:44;;;;;;;2.28;0.60;;;16.20;95.50;;;;;;6245972;23;20067;-76
2023/01/08 08:16:10;;;;;;;1.63;0.63;;;16.40;95.40;;;;;;6246158;23;20000;-80
2023/01/08 08:18:37;;;;;;;1.80;0.68;;;16.20;95.40;;;;;;6246323;23;20000;-78
2023/01/08 08:21:03;;;;;;;1.95;0.65;;;16.30;95.60;;;;;;6245893;23;20004;-79
2023/01/08 08:23:31;;;;;;;3.53;0.60;;;16.20;86.30;;;;;;6245607;23;20439;-79
2023/01/08 08:25:57;;;;;;;2.90;0.70;;;;;;;;;;6245850;23;20087;-81
2023/01/08 08:28:23;;;;;;;3.97;0.63;;;16.20;82.10;;;;;;6245795;23;20000;-78
2023/01/08 08:30:50;;;;;;;3.05;0.60;;;16.10;82.60;;;;;;6245808;23;20061;-76
2023/01/08 08:33:17;;;;;;;4.18;0.90;;;16.30;95.40;;;;;;6245800;23;20327;-76
2023/01/08 08:35:48;;;;;;;2.95;1.02;;;16.30;95.70;;;;;;6245835;23;20440;-76
2023/01/08 08:38:15;;;;;;;2.13;0.65;;;16.20;95.40;;;;;;6245447;23;19993;-78
2023/01/08 08:40:41;;;;;;;3.33;0.57;;;16.20;95.40;;;;;;6245678;23;20111;-77
2023/01/08 08:43:08;;;;;;;3.13;0.85;;;16.20;87.40;;;;;;6245616;23;20368;-75
2023/01/08 08:45:34;;;;;;;2.97;0.70;;;16.00;95.20;;;;;;6255474;23;20039;-76
2023/01/08 08:48:00;;;;;;;2.30;0.65;;;16.20;81.80;;;;;;6255522;23;20039;-75
2023/01/08 08:50:26;;;;;;;3.40;0.80;;;16.20;95.30;;;;;;6245845;23;20305;-76
2023/01/08 08:52:57;;;;;;;4.43;0.82;;;16.30;65.90;;;;;;6257480;23;20055;-77
2023/01/08 08:55:23;;;;;;;2.47;1.13;;;16.20;95.30;;;;;;6258875;23;20078;-76
2023/01/08 08:57:48;;;;;;;5.05;0.90;;;16.40;95.30;;;;;;6256864;23;19992;-75
2023/01/08 09:00:15;;;;;;;2.17;0.70;;;16.30;95.20;;;;;;6247219;23;19996;-74
2023/01/08 09:02:41;;;;;;;3.85;0.73;;;16.30;95.00;;;;;;6249076;23;20338;-75
2023/01/08 09:05:07;;;;;;;4.47;0.75;;;16.30;95.10;;;;;;6246912;23;20444;-77
2023/01/08 09:07:33;;;;;;;3.53;0.80;;;;;;;;;;6248756;23;20027;-76
2023/01/08 09:10:00;;;;;;;3.30;0.73;;;;;;;;;;6249355;23;20007;-77
2023/01/08 09:12:26;;;;;;;4.13;0.90;;;16.30;95.10;;;;;;6247409;23;20000;-76
2023/01/08 09:14:53;;;;;;;2.83;0.98;;;16.60;95.00;;;;;;6247062;23;19992;-75
2023/01/08 09:17:24;;;;;;;2.00;0.60;;;16.20;74.70;;;;;;6247489;23;20001;-76
2023/01/08 09:19:51;;;;;;;3.88;0.98;;;;;;;;;;6246417;23;20000;-78
2023/01/08 09:22:17;;;;;;;4.35;0.85;;;16.40;95.10;;;;;;6246126;23;20004;-76
2023/01/08 09:24:43;;;;;;;3.25;1.00;;;16.10;94.90;;;;;;6245288;23;19996;-76
2023/01/08 09:27:09;;;;;;;5.65;1.02;;;;;;;;;;6244908;23;20000;-76
2023/01/08 09:29:35;;;;;;;3.45;0.77;;;;;;;;;;6244913;23;19992;-76
2023/01/08 09:32:06;;;;;;;5.53;0.85;;;16.40;80.10;;;;;;6245263;23;20007;-76
2023/01/08 09:34:32;;;;;;;2.80;0.77;;;;;;;;;;6244985;23;19993;-76
2023/01/08 09:36:58;;;;;;;5.32;1.00;;;16.30;94.80;;;;;;6244875;23;20028;-76
2023/01/08 09:39:24;;;;;;;3.35;1.00;;;16.20;94.90;;;;;;6244636;23;20042;-76
2023/01/08 09:41:51;;;;;;;3.40;0.90;;;16.30;94.90;;;;;;6244946;23;20331;-76
2023/01/08 09:44:21;;;;;;;4.70;0.90;;;16.40;94.90;;;;;;6245109;23;19992;-76
2023/01/08 09:46:48;;;;;;;2.42;0.52;;;16.00;64.20;;;;;;6245141;23;20012;-76
2023/01/08 09:49:20;;;;;;;4.32;0.90;;;16.30;94.00;;;;;;6245236;23;20026;-76
2023/01/08 09:51:46;;;;;;;2.63;1.00;;;16.40;94.90;;;;;;6244924;23;19993;-76
2023/01/08 09:54:15;;;;;;;4.03;1.27;;;16.40;94.90;;;;;;6244738;23;20019;-76
2023/01/08 09:56:42;;;;;;;2.00;0.90;;;;;;;;;;6245023;23;20425;-76
2023/01/08 09:59:15;;;;;;;2.05;0.57;;;16.40;94.80;;;;;;6244451;23;20000;-76
2023/01/08 10:01:44;;;;;;;5.20;0.93;;;16.40;66.70;;;;;;6244852;23;20355;-76
2023/01/08 10:04:19;;;;;;;5.70;1.00;;;16.50;94.70;;;;;;6218496;23;20431;-76
2023/01/08 10:06:56;;;;;;;2.35;0.60;;;16.50;61.90;;;;;;6245044;23;20031;-76
2023/01/08 10:09:29;;;;;;;4.05;0.77;;;16.40;94.90;;;;;;6245163;23;19997;-75
2023/01/08 10:11:59;;;;;;;4.10;0.93;;;16.50;94.70;;;;;;6244936;23;19996;-76
2023/01/08 10:14:27;;;;;;;;;;;16.50;67.40;;;;;;6245323;23;20019;-76
2023/01/08 10:17:07;;;;;;;3.22;0.70;;;16.40;77.30;;;;;;6245393;23;19899;-75
2023/01/08 10:19:33;;;;;;;2.00;0.73;;;;;;;;;;6245197;23;20107;-76
2023/01/08 10:21:59;;;;;;;3.15;0.93;;;;;;;;;;6249879;23;20571;-77
2023/01/08 10:24:38;;;;;;;2.92;0.70;;;16.70;83.10;;;;;;6246823;23;20446;-75
2023/01/08 10:27:23;;;;;;;2.78;0.82;;;16.80;94.80;;;;;;6247103;23;20032;-74
2023/01/08 10:29:50;;;;;;;2.55;0.60;;;16.80;94.80;;;;;;6247026;23;19996;-75
2023/01/08 10:32:27;;;;;;;2.08;0.60;;;16.80;66.90;;;;;;6246941;23;20071;-75
2023/01/08 10:34:57;;;;;;;4.07;1.00;;;16.80;62.70;;;;;;6246652;23;20060;-75
2023/01/08 10:37:24;;;;;;;2.22;0.80;;;;;;;;;;6246910;23;20045;-75
2023/01/08 10:39:51;;;;;;;2.70;0.70;;;16.90;66.80;;;;;;6246443;23;20483;-75
2023/01/08 10:42:19;;;;;;;1.77;0.65;;;16.80;66.50;;;;;;6246449;23;20424;-75
2023/01/08 10:44:54;;;;;;;4.43;1.23;;;15.20;65.70;;;;;;6246870;23;20047;-76
2023/01/08 10:47:22;;;;;;;6.78;0.98;;;16.60;94.90;;;;;;6246863;23;20058;-75
2023/01/08 10:49:48;;;;;;;4.65;1.20;;;16.90;95.00;;;;;;6246857;23;20064;-75
2023/01/08 10:52:31;;;;;;;2.90;1.08;;;16.90;95.10;;;;;;6219833;23;20428;-75
2023/01/08 10:55:11;;;;;;;4.38;0.93;;;17.00;66.90;;;;;;6246826;23;19996;-75
2023/01/08 10:57:40;;;;;;;3.60;1.00;;;16.90;67.00;;;;;;6246695;23;20000;-75
2023/01/08 11:00:24;;;;;;;1.52;0.85;;;16.60;94.80;;;;;;6246454;23;20067;-74
2023/01/08 11:02:51;;;;;;;2.25;0.93;;;16.90;65.40;;;;;;6246280;23;20075;-74
2023/01/08 11:05:18;;;;;;;3.03;0.95;;;;;;;;;;6246260;23;20097;-75
2023/01/08 11:07:50;;;;;;;5.65;0.80;;;16.90;93.00;;;;;;6246486;23;20003;-75
2023/01/08 11:10:25;;;;;;;1.50;0.73;;;16.80;95.30;;;;;;6246694;23;20007;-74
2023/01/08 11:12:57;;;;;;;4.82;1.13;;;16.40;62.50;;;;;;6246178;23;20423;-78
2023/01/08 11:15:45;;;;;;;3.85;1.00;;;16.90;95.20;;;;;;6246157;23;20000;-76
2023/01/08 11:18:20;;;;;;;4.68;1.05;;;16.80;67.60;;;;;;6246556;23;19996;-77
2023/01/08 11:20:47;;;;;;;2.72;1.02;;;16.60;95.30;;;;;;6246576;23;19996;-78
2023/01/08 11:23:18;;;;;;;2.17;0.98;;;16.80;88.60;;;;;;6246579;23;19996;-70
2023/01/08 11:25:57;;;;;;;3.13;0.82;;;16.70;95.20;;;;;;6246095;23;20518;-69
2023/01/08 11:29:02;;;;;;;3.15;1.35;;;16.80;95.40;;;;;;6246028;23;19997;-70
2023/01/08 11:31:42;;;;;;;3.20;1.00;;;16.60;95.40;;;;;;6200440;23;19997;-71
2023/01/08 11:34:19;;;;;;;2.88;0.95;;;16.70;63.10;;;;;;6246395;23;20006;-71
2023/01/08 11:36:55;;;;;;;1.58;1.00;;;16.80;77.80;;;;;;6246251;23;20005;-71
2023/01/08 11:39:21;;;;;;;1.38;1.00;;;16.80;95.10;;;;;;6256238;23;20432;-69
2023/01/08 11:42:12;;;;;;;3.58;1.00;;;17.20;61.20;;;;;;6219266;23;20024;-74
2023/01/08 11:45:12;;;;;;;1.55;0.98;;;17.40;60.90;;;;;;6246288;23;20003;-77
2023/01/08 11:48:10;;;;;;;2.00;0.77;;;17.60;61.90;;;;;;6246337;23;20008;-75
2023/01/08 11:51:13;;;;;;;1.88;0.75;;;17.60;93.20;;;;;;6246244;23;20000;-76
2023/01/08 11:54:17;;;;;;;3.45;1.40;;;17.80;94.40;;;;;;6246081;23;20083;-75
2023/01/08 11:57:01;;;;;;;2.30;1.00;;;17.70;59.80;;;;;;6246378;23;20399;-74
2023/01/08 11:59:42;;;;;;;2.65;0.75;;;17.80;59.30;;;;;;6246306;23;20004;-77
2023/01/08 12:02:44;;;;;;;3.13;1.02;;;18.10;90.40;;;;;;6245837;23;20083;-75
2023/01/08 12:05:34;;;;;;;4.75;1.00;;;18.00;59.10;;;;;;6246011;23;20119;-75
2023/01/08 12:08:09;;;;;;;3.30;1.13;;;17.80;93.50;;;;;;6246124;23;20000;-75
2023/01/08 12:11:03;;;;;;;1.60;0.77;;;18.20;71.20;;;;;;6245992;23;20382;-76
2023/01/08 12:13:57;;;;;;;3.63;0.98;;;18.20;63.70;;;;;;6245740;23;20059;-76
2023/01/08 12:16:48;;;;;;;3.97;0.80;;;18.30;63.50;;;;;;6245641;23;20004;-76
2023/01/08 12:19:34;;;;;;;5.22;1.23;;;18.50;75.30;;;;;;6245957;23;19996;-76
2023/01/08 12:22:36;;;;;;;3.55;0.90;;;18.30;93.00;;;;;;6245623;23;20425;-75
2023/01/08 12:25:02;;;;;;;3.92;1.30;;;18.50;92.70;;;;;;6246147;23;20008;-75
2023/01/08 12:27:41;;;;;;;2.45;0.93;;;18.60;91.80;;;;;;6245838;23;20000;-76
2023/01/08 12:30:07;;;;;;;3.47;0.85;;;;;;;;;;6245951;23;19997;-75
2023/01/08 12:32:53;;;;;;;2.17;1.08;;;18.60;62.60;;;;;;6245730;23;20000;-75
2023/01/08 12:35:26;;;;;;;2.13;0.77;;;18.40;64.20;;;;;;6224645;23;20035;-78
2023/01/08 12:38:10;;;;;;;3.17;1.13;;;18.40;92.90;;;;;;6245485;23;20069;-77
2023/01/08 12:40:47;;;;;;;2.08;0.88;;;18.80;92.70;;;;;;6245544;23;19997;-74
2023/01/08 12:43:20;;;;;;;0.95;0.70;;;18.70;61.90;;;;;;6245813;23;20003;-77
2023/01/08 12:45:50;;;;;;;2.92;0.80;;;19.10;63.30;;;;;;6245383;23;20004;-77
2023/01/08 12:48:20;;;;;;;2.20;0.70;;;18.90;92.80;;;;;;6245535;23;20373;-75
2023/01/08 12:51:16;;;;;;;1.38;0.68;;;18.80;57.30;;;;;;6245301;23;20000;-77
2023/01/08 12:54:01;;;;;;;2.15;0.80;;;19.00;92.90;;;;;;6245563;23;19999;-77
2023/01/08 12:56:36;;;;;;;1.20;0.70;;;18.90;57.30;;;;;;6245384;23;20068;-79
2023/01/08 12:59:17;;;;;;;2.85;0.85;;;18.70;92.60;;;;;;6245579;23;20023;-80
2023/01/08 13:01:49;;;;;;;;;;;19.00;62.70;;;;;;6255848;23;20053;-76
2023/01/08 13:04:15;;;;;;;1.58;0.80;;;18.80;92.80;;;;;;6255515;23;19908;-75
2023/01/08 13:07:01;;;;;;;4.68;1.15;;;19.30;57.50;;;;;;6245477;23;20031;-74
2023/01/08 13:09:29;;;;;;;3.13;0.80;;;18.90;61.00;;;;;;6245150;23;20440;-74
2023/01/08 13:11:57;;;;;;;5.32;1.00;;;18.90;92.70;;;;;;6245528;23;19999;-75
2023/01/08 13:14:23;;;;;;;3.42;1.02;;;18.60;59.80;;;;;;6245351;23;20007;-73
2023/01/08 13:17:04;;;;;;;1.40;0.65;;;18.70;82.50;;;;;;6245314;23;20359;-72
2023/01/08 13:19:39;;;;;;;2.45;0.98;;;19.00;92.90;;;;;;6245401;23;19996;-73
2023/01/08 13:22:36;;;;;;;1.70;0.70;;;18.70;62.70;;;;;;6244973;23;20482;-73